Аэропорт: Николаев. Николаев

ICAO: UKON

METAR:
Информация по данной станции не доступна
METAR:
2019-11-20 23:03:00
TAF UKON 202303Z 2100/2109 08007G14MPS 2100 BR SCT004 BKN007 TX03/2100Z TN01/2106Z